createdAt,value
2018-08-16T00:00:02.514Z,23.37
2018-08-16T00:02:30.186Z,23.43
2018-08-16T00:04:58.076Z,23.35
2018-08-16T00:07:25.821Z,23.31
2018-08-16T00:09:54.212Z,23.38
2018-08-16T00:12:21.962Z,23.10
2018-08-16T00:14:49.794Z,23.09
2018-08-16T00:17:17.620Z,23.08
2018-08-16T00:19:45.334Z,22.97
2018-08-16T00:22:13.130Z,22.94
2018-08-16T00:24:40.841Z,23.00
2018-08-16T00:27:08.627Z,23.06
2018-08-16T00:29:36.330Z,23.08
2018-08-16T00:32:04.059Z,23.00
2018-08-16T00:34:31.870Z,23.13
2018-08-16T00:36:59.786Z,23.14
2018-08-16T00:39:27.673Z,23.06
2018-08-16T00:41:55.506Z,23.07
2018-08-16T00:44:23.341Z,23.14
2018-08-16T00:46:51.167Z,23.16
2018-08-16T00:49:18.955Z,23.14
2018-08-16T00:51:46.722Z,23.13
2018-08-16T00:54:14.532Z,23.13
2018-08-16T00:56:42.285Z,23.13
2018-08-16T00:59:09.978Z,23.08
2018-08-16T01:01:37.666Z,22.87
2018-08-16T01:04:05.701Z,22.75
2018-08-16T01:06:33.360Z,22.59
2018-08-16T01:09:01.019Z,22.43
2018-08-16T01:11:28.777Z,22.48
2018-08-16T01:13:56.429Z,22.47
2018-08-16T01:16:24.108Z,22.43
2018-08-16T01:18:51.945Z,22.44
2018-08-16T01:21:19.590Z,22.55
2018-08-16T01:23:47.248Z,22.59
2018-08-16T01:26:14.982Z,22.52
2018-08-16T01:28:42.809Z,22.61
2018-08-16T01:31:10.630Z,22.37
2018-08-16T01:33:38.357Z,22.44
2018-08-16T01:36:06.137Z,22.60
2018-08-16T01:38:33.835Z,22.67
2018-08-16T01:41:01.530Z,22.75
2018-08-16T01:43:29.196Z,22.80
2018-08-16T01:45:56.875Z,22.82
2018-08-16T01:48:24.569Z,22.83
2018-08-16T01:50:52.287Z,22.88
2018-08-16T01:53:20.395Z,22.90
2018-08-16T01:55:48.123Z,22.86
2018-08-16T01:58:15.835Z,22.81
2018-08-16T02:00:43.506Z,22.81
2018-08-16T02:03:11.169Z,22.76
2018-08-16T02:05:38.858Z,22.71
2018-08-16T02:08:06.657Z,22.68
2018-08-16T02:10:34.321Z,22.56
2018-08-16T02:13:02.014Z,22.59
2018-08-16T02:15:29.705Z,22.49
2018-08-16T02:17:57.372Z,22.43
2018-08-16T02:20:25.089Z,22.33
2018-08-16T02:22:52.771Z,22.26
2018-08-16T02:25:20.499Z,22.24
2018-08-16T02:27:48.186Z,22.28
2018-08-16T02:30:15.841Z,22.31
2018-08-16T02:32:43.529Z,22.25
2018-08-16T02:35:11.284Z,22.24
2018-08-16T02:37:39.006Z,22.10
2018-08-16T02:40:07.386Z,22.02
2018-08-16T02:42:35.202Z,21.95
2018-08-16T02:45:02.971Z,21.93
2018-08-16T02:47:30.653Z,21.85
2018-08-16T02:49:58.305Z,21.83
2018-08-16T02:52:26.001Z,21.66
2018-08-16T02:54:53.681Z,21.60
2018-08-16T02:57:21.437Z,21.62
2018-08-16T02:59:49.091Z,21.65
2018-08-16T03:02:16.777Z,21.66
2018-08-16T03:04:44.539Z,21.60
2018-08-16T03:07:12.220Z,21.57
2018-08-16T03:09:39.921Z,21.43
2018-08-16T03:12:09.689Z,21.23
2018-08-16T03:14:37.514Z,21.21
2018-08-16T03:17:05.345Z,21.23
2018-08-16T03:19:33.037Z,21.28
2018-08-16T03:22:00.755Z,21.28
2018-08-16T03:24:28.430Z,21.30
2018-08-16T03:26:56.109Z,21.37
2018-08-16T03:29:23.815Z,21.30
2018-08-16T03:31:51.475Z,21.30
2018-08-16T03:34:19.129Z,21.39
2018-08-16T03:36:46.790Z,21.46
2018-08-16T03:39:14.438Z,21.55
2018-08-16T03:41:42.157Z,21.67
2018-08-16T03:44:09.796Z,21.88
2018-08-16T03:46:37.502Z,22.05
2018-08-16T03:49:05.342Z,22.09
2018-08-16T03:51:32.986Z,22.56
2018-08-16T03:54:00.641Z,23.99
2018-08-16T03:56:28.379Z,25.17
2018-08-16T03:58:56.054Z,26.23
2018-08-16T04:01:23.722Z,26.19
2018-08-16T04:03:51.419Z,26.96
2018-08-16T04:06:19.098Z,27.15
2018-08-16T04:08:46.759Z,27.73
2018-08-16T04:11:14.506Z,27.99
2018-08-16T04:13:42.238Z,28.86
2018-08-16T04:16:09.976Z,29.27
2018-08-16T04:18:37.630Z,29.32
2018-08-16T04:21:05.354Z,29.89
2018-08-16T04:23:33.063Z,31.52
2018-08-16T04:26:00.730Z,32.04
2018-08-16T04:28:28.386Z,32.52
2018-08-16T04:30:56.046Z,32.87
2018-08-16T04:33:23.736Z,33.24
2018-08-16T04:35:51.382Z,33.44
2018-08-16T04:38:19.022Z,33.08
2018-08-16T04:40:46.658Z,33.84
2018-08-16T04:43:14.314Z,34.97
2018-08-16T04:45:41.996Z,35.46
2018-08-16T04:48:09.636Z,34.62
2018-08-16T04:50:37.315Z,33.42
2018-08-16T04:53:05.143Z,32.84
2018-08-16T04:55:32.821Z,32.85
2018-08-16T04:58:00.518Z,33.38
2018-08-16T05:00:28.257Z,34.01
2018-08-16T05:02:55.973Z,34.64
2018-08-16T05:05:23.677Z,34.91
2018-08-16T05:07:51.347Z,35.13
2018-08-16T05:10:19.030Z,34.65
2018-08-16T05:12:46.673Z,35.06
2018-08-16T05:15:14.366Z,32.76
2018-08-16T05:17:42.014Z,30.46
2018-08-16T05:20:11.849Z,30.04
2018-08-16T05:22:39.557Z,29.89
2018-08-16T05:25:07.330Z,29.18
2018-08-16T05:27:35.349Z,28.63
2018-08-16T05:30:04.410Z,29.32
2018-08-16T05:32:32.105Z,31.32
2018-08-16T05:34:59.824Z,32.62
2018-08-16T05:37:27.534Z,33.01
2018-08-16T05:39:55.218Z,32.78
2018-08-16T05:42:22.912Z,32.55
2018-08-16T05:44:50.573Z,33.00
2018-08-16T05:47:18.269Z,34.56
2018-08-16T05:49:45.917Z,35.14
2018-08-16T05:52:13.617Z,34.16
2018-08-16T05:54:41.281Z,33.07
2018-08-16T05:57:08.965Z,35.01
2018-08-16T05:59:36.699Z,35.85
2018-08-16T06:02:04.423Z,35.14
2018-08-16T06:04:32.115Z,35.80
2018-08-16T06:06:59.818Z,36.66
2018-08-16T06:09:27.465Z,36.60
2018-08-16T06:11:55.165Z,35.15
2018-08-16T06:14:22.831Z,34.26
2018-08-16T06:16:50.494Z,32.26
2018-08-16T06:19:18.188Z,31.31
2018-08-16T06:21:45.902Z,30.77
2018-08-16T06:24:13.608Z,29.88
2018-08-16T06:26:41.380Z,31.44
2018-08-16T06:29:09.098Z,31.87
2018-08-16T06:31:36.935Z,34.01
2018-08-16T06:34:04.727Z,35.74
2018-08-16T06:36:32.402Z,34.94
2018-08-16T06:39:00.174Z,34.94
2018-08-16T06:41:27.886Z,34.69
2018-08-16T06:43:55.574Z,33.42
2018-08-16T06:46:23.359Z,32.91
2018-08-16T06:48:51.115Z,33.09
2018-08-16T06:51:18.829Z,31.77
2018-08-16T06:53:46.542Z,32.43
2018-08-16T06:56:14.295Z,32.38
2018-08-16T06:58:42.046Z,31.62
2018-08-16T07:01:09.867Z,31.53
2018-08-16T07:03:37.547Z,32.15
2018-08-16T07:06:05.393Z,32.50
2018-08-16T07:08:33.073Z,32.63
2018-08-16T07:11:00.921Z,31.64
2018-08-16T07:13:28.658Z,32.10
2018-08-16T07:15:56.324Z,32.51
2018-08-16T07:18:24.001Z,32.15
2018-08-16T07:20:51.682Z,31.88
2018-08-16T07:23:19.437Z,32.45
2018-08-16T07:25:47.108Z,32.11
2018-08-16T07:28:14.817Z,31.23
2018-08-16T07:30:42.515Z,30.45
2018-08-16T07:33:10.166Z,29.37
2018-08-16T07:35:37.881Z,29.25
2018-08-16T07:38:05.634Z,29.26
2018-08-16T07:40:33.342Z,30.31
2018-08-16T07:43:01.043Z,31.20
2018-08-16T07:45:28.823Z,31.33
2018-08-16T07:47:56.594Z,30.55
2018-08-16T07:50:24.324Z,30.89
2018-08-16T07:52:52.057Z,31.63
2018-08-16T07:55:19.760Z,32.45
2018-08-16T07:57:47.448Z,31.93
2018-08-16T08:00:18.716Z,31.12
2018-08-16T08:02:46.842Z,31.22
2018-08-16T08:05:14.647Z,32.16
2018-08-16T08:07:42.677Z,31.72
2018-08-16T08:10:10.456Z,31.55
2018-08-16T08:12:38.863Z,31.72
2018-08-16T08:15:09.144Z,31.54
2018-08-16T08:17:37.261Z,32.17
2018-08-16T08:20:06.946Z,32.06
2018-08-16T08:22:34.664Z,31.78
2018-08-16T08:25:02.419Z,31.79
2018-08-16T08:27:30.141Z,32.65
2018-08-16T08:29:57.864Z,32.58
2018-08-16T08:32:25.593Z,32.67
2018-08-16T08:34:53.352Z,33.22
2018-08-16T08:37:32.129Z,34.15
2018-08-16T08:39:59.830Z,32.77
2018-08-16T08:42:27.536Z,32.89
2018-08-16T08:44:55.195Z,32.80
2018-08-16T08:47:27.381Z,32.67
2018-08-16T08:49:55.934Z,32.91
2018-08-16T08:52:23.593Z,33.56
2018-08-16T08:55:02.331Z,34.42
2018-08-16T08:57:41.620Z,32.90
2018-08-16T09:00:09.524Z,33.42
2018-08-16T09:02:37.210Z,33.36
2018-08-16T09:05:05.558Z,32.87
2018-08-16T09:07:33.342Z,33.07
2018-08-16T09:11:19.148Z,33.92
2018-08-16T09:14:00.337Z,34.18
2018-08-16T09:16:33.263Z,33.96
2018-08-16T09:19:01.182Z,34.07
2018-08-16T09:21:29.560Z,33.78
2018-08-16T09:23:57.374Z,34.31
2018-08-16T09:26:30.578Z,34.99
2018-08-16T09:28:58.395Z,34.60
2018-08-16T09:31:37.284Z,35.32
2018-08-16T09:34:14.059Z,35.59
2018-08-16T09:36:41.765Z,35.97
2018-08-16T09:39:09.605Z,34.68
2018-08-16T09:41:37.546Z,34.76
2018-08-16T09:44:05.446Z,34.87
2018-08-16T09:47:11.603Z,34.09
2018-08-16T09:49:41.314Z,34.66
2018-08-16T09:52:10.097Z,35.25
2018-08-16T09:54:37.885Z,35.47
2018-08-16T09:57:07.133Z,35.26
2018-08-16T09:59:35.115Z,34.46
2018-08-16T10:02:03.448Z,35.57
2018-08-16T10:04:31.086Z,35.74
2018-08-16T10:06:58.919Z,36.49
2018-08-16T10:09:28.877Z,35.73
2018-08-16T10:11:57.534Z,35.90
2018-08-16T10:14:25.332Z,36.22
2018-08-16T10:16:53.042Z,36.09
2018-08-16T10:19:21.054Z,36.06
2018-08-16T10:21:48.816Z,36.29
2018-08-16T10:24:16.547Z,35.74
2018-08-16T10:26:44.241Z,35.51
2018-08-16T10:29:12.330Z,36.18
2018-08-16T10:31:40.162Z,36.98
2018-08-16T10:34:07.984Z,36.74
2018-08-16T10:36:35.744Z,37.40
2018-08-16T10:39:05.562Z,36.73
2018-08-16T10:41:33.346Z,36.66
2018-08-16T10:44:01.048Z,37.10
2018-08-16T10:46:28.866Z,36.47
2018-08-16T10:48:56.639Z,36.14
2018-08-16T10:51:24.371Z,35.40
2018-08-16T10:53:52.130Z,34.57
2018-08-16T10:56:20.164Z,34.57
2018-08-16T10:58:47.902Z,35.61
2018-08-16T11:01:15.662Z,35.99
2018-08-16T11:03:43.413Z,35.18
2018-08-16T11:06:11.206Z,36.28
2018-08-16T11:08:38.918Z,37.00
2018-08-16T11:11:06.915Z,35.89
2018-08-16T11:13:34.586Z,36.52
2018-08-16T11:16:02.285Z,36.62
2018-08-16T11:18:30.323Z,36.73
2018-08-16T11:20:58.056Z,37.29
2018-08-16T11:23:25.778Z,38.38
2018-08-16T11:25:53.614Z,38.55
2018-08-16T11:28:21.316Z,38.17
2018-08-16T11:30:49.062Z,37.97
2018-08-16T11:33:16.839Z,37.58
2018-08-16T11:35:44.518Z,38.20
2018-08-16T11:38:13.114Z,38.50
2018-08-16T11:40:40.878Z,37.65
2018-08-16T11:43:08.578Z,37.06
2018-08-16T11:45:36.283Z,37.18
2018-08-16T11:48:04.083Z,37.70
2018-08-16T11:50:32.086Z,38.44
2018-08-16T11:52:59.793Z,38.04
2018-08-16T11:55:27.496Z,38.24
2018-08-16T11:57:55.188Z,38.42
2018-08-16T12:00:22.933Z,37.64
2018-08-16T12:02:50.694Z,36.42
2018-08-16T12:05:18.477Z,36.39
2018-08-16T12:07:46.197Z,36.93
2018-08-16T12:10:14.785Z,36.50
2018-08-16T12:12:42.481Z,36.69
2018-08-16T12:15:10.245Z,36.99
2018-08-16T12:17:38.009Z,37.38
2018-08-16T12:20:06.678Z,37.99
2018-08-16T12:22:34.678Z,36.92
2018-08-16T12:25:02.494Z,37.65
2018-08-16T12:27:30.342Z,37.78
2018-08-16T12:29:58.075Z,37.03
2018-08-16T12:32:25.842Z,38.20
2018-08-16T12:34:53.552Z,39.30
2018-08-16T12:37:21.266Z,39.46
2018-08-16T12:39:49.000Z,38.65
2018-08-16T12:42:16.848Z,39.02
2018-08-16T12:44:44.437Z,37.93
2018-08-16T12:47:12.169Z,37.57
2018-08-16T12:49:39.860Z,37.92
2018-08-16T12:52:07.977Z,39.23
2018-08-16T12:54:35.737Z,40.23
2018-08-16T12:57:03.538Z,39.35
2018-08-16T12:59:31.234Z,39.91
2018-08-16T13:01:59.015Z,39.19
2018-08-16T13:04:26.707Z,37.89
2018-08-16T13:06:54.506Z,38.15
2018-08-16T13:09:22.243Z,37.48
2018-08-16T13:11:49.963Z,37.07
2018-08-16T13:14:17.737Z,36.86
2018-08-16T13:16:45.464Z,37.80
2018-08-16T13:19:13.218Z,38.40
2018-08-16T13:21:40.935Z,38.66
2018-08-16T13:24:08.746Z,38.22
2018-08-16T13:26:36.492Z,37.92
2018-08-16T13:29:04.655Z,37.65
2018-08-16T13:31:32.387Z,37.99
2018-08-16T13:34:00.143Z,38.04
2018-08-16T13:36:27.886Z,37.29
2018-08-16T13:38:55.683Z,36.89
2018-08-16T13:41:23.537Z,36.84
2018-08-16T13:43:51.315Z,37.51
2018-08-16T13:46:19.103Z,38.30
2018-08-16T13:48:46.936Z,37.79
2018-08-16T13:51:14.590Z,37.46
2018-08-16T13:53:42.274Z,38.06
2018-08-16T13:56:10.047Z,38.45
2018-08-16T13:58:37.791Z,38.60
2018-08-16T14:01:05.543Z,39.20
2018-08-16T14:03:33.318Z,40.15
2018-08-16T14:06:01.025Z,39.63
2018-08-16T14:08:28.770Z,39.13
2018-08-16T14:10:56.492Z,39.84
2018-08-16T14:13:24.304Z,39.91
2018-08-16T14:15:52.414Z,39.44
2018-08-16T14:18:20.105Z,39.85
2018-08-16T14:20:47.874Z,38.95
2018-08-16T14:23:15.623Z,38.37
2018-08-16T14:25:43.339Z,38.04
2018-08-16T14:28:11.050Z,37.76
2018-08-16T14:30:38.852Z,37.74
2018-08-16T14:33:06.589Z,37.04
2018-08-16T14:35:34.650Z,37.58
2018-08-16T14:38:02.367Z,37.86
2018-08-16T14:40:30.087Z,36.87
2018-08-16T14:42:57.826Z,36.59
2018-08-16T14:45:25.590Z,36.52
2018-08-16T14:47:53.420Z,36.78
2018-08-16T14:50:21.250Z,36.16
2018-08-16T14:52:49.037Z,36.24
2018-08-16T14:55:16.754Z,35.83
2018-08-16T14:57:44.520Z,36.07
2018-08-16T15:00:12.217Z,36.19
2018-08-16T15:02:40.519Z,36.07
2018-08-16T15:05:08.684Z,35.65
2018-08-16T15:07:36.388Z,35.70
2018-08-16T15:10:04.975Z,36.00
2018-08-16T15:12:32.728Z,36.52
2018-08-16T15:15:01.430Z,36.74
2018-08-16T15:17:29.152Z,36.48
2018-08-16T15:19:56.882Z,36.74
2018-08-16T15:22:24.622Z,37.07
2018-08-16T15:24:52.334Z,37.03
2018-08-16T15:27:20.031Z,37.11
2018-08-16T15:29:47.754Z,36.98
2018-08-16T15:32:15.529Z,37.08
2018-08-16T15:34:43.250Z,36.70
2018-08-16T15:37:10.953Z,36.81
2018-08-16T15:39:38.710Z,36.58
2018-08-16T15:42:06.494Z,36.43
2018-08-16T15:44:34.231Z,36.58
2018-08-16T15:47:01.954Z,36.84
2018-08-16T15:49:29.652Z,36.52
2018-08-16T15:51:57.730Z,36.57
2018-08-16T15:54:25.506Z,36.86
2018-08-16T15:56:53.255Z,37.33
2018-08-16T15:59:21.011Z,37.03
2018-08-16T16:01:50.799Z,37.06
2018-08-16T16:04:19.841Z,37.10
2018-08-16T16:06:47.578Z,36.83
2018-08-16T16:09:15.264Z,37.14
2018-08-16T16:11:42.963Z,37.26
2018-08-16T16:14:10.723Z,36.99
2018-08-16T16:16:38.455Z,36.86
2018-08-16T16:19:06.262Z,36.83
2018-08-16T16:21:34.013Z,37.09
2018-08-16T16:24:02.014Z,36.75
2018-08-16T16:26:29.798Z,36.69
2018-08-16T16:28:57.526Z,36.67
2018-08-16T16:31:27.053Z,36.40
2018-08-16T16:33:54.782Z,36.04
2018-08-16T16:36:22.928Z,35.93
2018-08-16T16:38:51.006Z,36.03
2018-08-16T16:41:19.034Z,35.78
2018-08-16T16:43:46.844Z,35.77
2018-08-16T16:46:14.667Z,35.65
2018-08-16T16:48:42.539Z,35.68
2018-08-16T16:51:12.982Z,35.53
2018-08-16T16:53:40.781Z,35.30
2018-08-16T16:56:08.850Z,35.22
2018-08-16T16:58:36.651Z,34.54
2018-08-16T17:01:04.859Z,34.42
2018-08-16T17:03:32.646Z,34.46
2018-08-16T17:06:00.371Z,34.38
2018-08-16T17:08:28.070Z,34.16
2018-08-16T17:10:55.766Z,33.93
2018-08-16T17:13:23.628Z,33.64
2018-08-16T17:15:51.349Z,33.20
2018-08-16T17:18:19.090Z,33.12
2018-08-16T17:20:46.782Z,33.36
2018-08-16T17:23:14.494Z,33.20
2018-08-16T17:25:42.250Z,33.15
2018-08-16T17:28:09.957Z,33.22
2018-08-16T17:30:37.801Z,33.28
2018-08-16T17:33:05.530Z,33.26
2018-08-16T17:35:33.250Z,33.14
2018-08-16T17:38:00.947Z,33.21
2018-08-16T17:40:28.680Z,33.08
2018-08-16T17:42:56.376Z,32.80
2018-08-16T17:45:24.196Z,32.58
2018-08-16T17:47:51.938Z,32.36
2018-08-16T17:50:20.009Z,32.21
2018-08-16T17:52:47.757Z,32.22
2018-08-16T17:55:15.464Z,31.93
2018-08-16T17:57:43.166Z,32.00
2018-08-16T18:00:11.865Z,31.71
2018-08-16T18:02:39.906Z,31.74
2018-08-16T18:05:08.132Z,31.67
2018-08-16T18:07:36.157Z,31.47
2018-08-16T18:10:05.295Z,31.54
2018-08-16T18:12:33.367Z,31.39
2018-08-16T18:15:01.078Z,31.45
2018-08-16T18:17:29.533Z,31.31
2018-08-16T18:19:57.229Z,31.30
2018-08-16T18:22:24.898Z,31.36
2018-08-16T18:24:52.674Z,31.32
2018-08-16T18:27:20.461Z,30.91
2018-08-16T18:29:48.209Z,30.78
2018-08-16T18:32:15.915Z,30.47
2018-08-16T18:34:43.631Z,30.33
2018-08-16T18:37:11.337Z,30.03
2018-08-16T18:39:39.038Z,30.12
2018-08-16T18:42:06.834Z,30.02
2018-08-16T18:44:34.577Z,30.15
2018-08-16T18:47:02.276Z,30.26
2018-08-16T18:49:30.594Z,30.26
2018-08-16T18:51:58.451Z,30.50
2018-08-16T18:54:26.236Z,30.36
2018-08-16T18:56:54.126Z,30.30
2018-08-16T18:59:22.397Z,30.47
2018-08-16T19:01:50.193Z,30.29
2018-08-16T19:04:18.302Z,30.24
2018-08-16T19:06:46.072Z,30.49
2018-08-16T19:09:13.801Z,30.54
2018-08-16T19:11:41.602Z,30.57
2018-08-16T19:14:09.567Z,30.63
2018-08-16T19:16:37.750Z,30.48
2018-08-16T19:19:05.887Z,30.41
2018-08-16T19:21:33.973Z,30.13
2018-08-16T19:24:01.642Z,29.43
2018-08-16T19:26:29.370Z,29.68
2018-08-16T19:28:57.062Z,29.80
2018-08-16T19:31:24.794Z,29.94
2018-08-16T19:33:52.752Z,30.12
2018-08-16T19:36:20.491Z,30.18
2018-08-16T19:38:48.247Z,30.15
2018-08-16T19:41:16.029Z,30.01
2018-08-16T19:43:43.759Z,30.12
2018-08-16T19:46:11.565Z,30.32
2018-08-16T19:48:39.324Z,30.40
2018-08-16T19:51:07.356Z,30.34
2018-08-16T19:53:35.145Z,30.37
2018-08-16T19:56:02.937Z,30.36
2018-08-16T19:58:30.677Z,30.07
2018-08-16T20:00:58.795Z,30.03
2018-08-16T20:03:27.168Z,29.89
2018-08-16T20:05:54.898Z,30.08
2018-08-16T20:08:22.625Z,30.23
2018-08-16T20:10:50.382Z,30.44
2018-08-16T20:13:18.222Z,30.59
2018-08-16T20:15:46.817Z,30.54
2018-08-16T20:18:14.647Z,30.33
2018-08-16T20:20:42.338Z,29.95
2018-08-16T20:23:10.364Z,29.72
2018-08-16T20:25:38.132Z,29.69
2018-08-16T20:28:06.343Z,29.86
2018-08-16T20:30:34.116Z,29.69
2018-08-16T20:33:01.837Z,29.55
2018-08-16T20:35:29.573Z,29.47
2018-08-16T20:37:57.342Z,29.15
2018-08-16T20:40:25.117Z,29.08
2018-08-16T20:42:52.898Z,29.14
2018-08-16T20:45:20.722Z,29.21
2018-08-16T20:47:48.543Z,29.10
2018-08-16T20:50:16.348Z,29.24
2018-08-16T20:52:44.084Z,28.97
2018-08-16T20:55:11.886Z,28.96
2018-08-16T20:57:39.657Z,28.95
2018-08-16T21:00:09.021Z,28.98
2018-08-16T21:02:36.709Z,28.90
2018-08-16T21:05:05.035Z,28.90
2018-08-16T21:07:32.728Z,28.76
2018-08-16T21:10:00.428Z,28.75
2018-08-16T21:12:28.167Z,28.56
2018-08-16T21:14:55.915Z,28.61
2018-08-16T21:17:23.619Z,28.60
2018-08-16T21:19:51.310Z,28.53
2018-08-16T21:22:19.041Z,28.44
2018-08-16T21:24:46.731Z,28.00
2018-08-16T21:27:14.426Z,27.99
2018-08-16T21:29:42.136Z,27.71
2018-08-16T21:32:09.826Z,27.85
2018-08-16T21:34:37.560Z,27.92
2018-08-16T21:37:05.474Z,27.83
2018-08-16T21:39:33.474Z,27.85
2018-08-16T21:42:01.162Z,27.76
2018-08-16T21:44:28.835Z,27.67
2018-08-16T21:46:56.489Z,27.60
2018-08-16T21:49:24.216Z,27.42
2018-08-16T21:51:51.886Z,27.29
2018-08-16T21:54:19.557Z,27.13
2018-08-16T21:56:47.225Z,27.30
2018-08-16T21:59:14.885Z,27.34
2018-08-16T22:01:42.638Z,27.26
2018-08-16T22:04:10.384Z,27.28
2018-08-16T22:06:49.212Z,27.12
2018-08-16T22:09:16.950Z,27.15
2018-08-16T22:11:44.637Z,27.13
2018-08-16T22:14:12.309Z,26.97
2018-08-16T22:16:39.974Z,26.91
2018-08-16T22:19:07.678Z,26.86
2018-08-16T22:21:35.403Z,26.84
2018-08-16T22:24:03.239Z,26.80
2018-08-16T22:26:31.372Z,26.61
2018-08-16T22:28:59.051Z,26.55
2018-08-16T22:31:26.759Z,26.64
2018-08-16T22:33:54.470Z,26.59
2018-08-16T22:36:22.160Z,26.61
2018-08-16T22:38:49.848Z,26.65
2018-08-16T22:41:17.513Z,26.42
2018-08-16T22:43:45.214Z,26.40
2018-08-16T22:46:12.898Z,26.32
2018-08-16T22:48:40.579Z,26.30
2018-08-16T22:51:08.247Z,26.22
2018-08-16T22:53:35.931Z,26.21
2018-08-16T22:56:03.650Z,26.20
2018-08-16T22:58:31.338Z,26.06
2018-08-16T23:00:59.002Z,25.92
2018-08-16T23:03:26.662Z,25.96
2018-08-16T23:05:54.353Z,26.02
2018-08-16T23:08:22.055Z,25.96
2018-08-16T23:10:49.759Z,25.83
2018-08-16T23:13:17.439Z,25.71
2018-08-16T23:15:45.141Z,25.72
2018-08-16T23:18:12.827Z,25.74
2018-08-16T23:20:40.494Z,25.68
2018-08-16T23:23:08.149Z,25.58
2018-08-16T23:25:35.835Z,25.60
2018-08-16T23:28:03.509Z,25.56
2018-08-16T23:30:31.174Z,25.55
2018-08-16T23:32:58.943Z,25.57
2018-08-16T23:35:26.600Z,25.53
2018-08-16T23:37:54.257Z,25.50
2018-08-16T23:40:21.929Z,25.42
2018-08-16T23:42:49.798Z,25.32
2018-08-16T23:45:17.489Z,25.28
2018-08-16T23:47:56.387Z,25.18
2018-08-16T23:50:24.112Z,25.19
2018-08-16T23:52:51.822Z,25.20
2018-08-16T23:55:19.538Z,25.24
2018-08-16T23:57:47.236Z,25.26
